Search for airport 
image banner adimage banner adimage banner ad
image banner ad

CN52 - Oroville Hospital

Located in Oroville, United States

ICAO - CN52, IATA -

Data provided by Airmate  

General information

Coordinates: N39°30'27" W121°32'30"
Elevation is 255 feet MSL.
Magnetic variation is 14° East
View others Airports in California

Operational data

Special qualification required
Current time UTC:
Current local time:
Weather at : KOVE - Oroville Muni ( 7 km )
METAR: KOVE 270353Z AUTO 16012KT 10SM CLR 29/06 A2986 RMK AO2 SLP112 T02890061
View NOTAMs / SUP AIP / TFR affecting this airport [VIEW]
Communications frequencies: [VIEW]

Runways:

Airport contact information

Address: Oroville United States

Satellite view of CN52